createdAt,value
2023-02-25T00:02:19.077Z,5.43
2023-02-25T00:04:47.153Z,4.93
2023-02-25T00:07:15.733Z,4.40
2023-02-25T00:09:43.827Z,7.10
2023-02-25T00:12:13.378Z,5.27
2023-02-25T00:14:41.581Z,6.20
2023-02-25T00:17:09.594Z,4.83
2023-02-25T00:19:37.713Z,5.70
2023-02-25T00:22:05.730Z,4.73
2023-02-25T00:24:33.750Z,4.50
2023-02-25T00:27:01.753Z,4.90
2023-02-25T00:29:31.692Z,4.80
2023-02-25T00:31:59.890Z,3.80
2023-02-25T00:34:28.593Z,3.73
2023-02-25T00:36:57.725Z,5.10
2023-02-25T00:39:42.307Z,5.70
2023-02-25T00:42:10.627Z,4.47
2023-02-25T00:44:40.649Z,4.50
2023-02-25T00:47:08.660Z,4.23
2023-02-25T00:49:36.729Z,5.13
2023-02-25T00:52:05.034Z,3.90
2023-02-25T00:54:34.094Z,5.17
2023-02-25T00:57:04.199Z,4.80
2023-02-25T00:59:33.466Z,4.50
2023-02-25T01:02:02.904Z,4.77
2023-02-25T01:04:30.970Z,4.47
2023-02-25T01:06:59.226Z,5.83
2023-02-25T01:09:27.592Z,3.93
2023-02-25T01:11:58.046Z,3.50
2023-02-25T01:14:27.081Z,3.70
2023-02-25T01:16:57.841Z,3.33
2023-02-25T01:19:27.598Z,3.87
2023-02-25T01:21:57.710Z,3.90
2023-02-25T01:24:28.205Z,3.80
2023-02-25T01:26:58.870Z,4.97
2023-02-25T01:29:28.725Z,3.40
2023-02-25T01:31:59.147Z,5.27
2023-02-25T01:34:29.843Z,6.30
2023-02-25T01:36:58.229Z,4.23
2023-02-25T01:39:27.877Z,5.50
2023-02-25T01:41:57.268Z,6.60
2023-02-25T01:44:31.564Z,4.77
2023-02-25T01:47:01.338Z,5.20
2023-02-25T01:49:35.665Z,7.03
2023-02-25T01:52:09.699Z,4.83
2023-02-25T01:54:38.875Z,4.70
2023-02-25T01:57:09.691Z,4.33
2023-02-25T01:59:39.129Z,7.10
2023-02-25T02:02:09.292Z,5.13
2023-02-25T02:04:40.537Z,4.50
2023-02-25T02:07:08.667Z,5.47
2023-02-25T02:09:37.951Z,5.53
2023-02-25T02:12:07.888Z,5.03
2023-02-25T02:14:39.862Z,5.80
2023-02-25T02:17:19.533Z,6.13
2023-02-25T02:20:09.975Z,6.27
2023-02-25T02:22:50.024Z,5.20
2023-02-25T02:26:08.870Z,5.30
2023-02-25T02:29:10.207Z,5.03
2023-02-25T02:31:50.778Z,5.60
2023-02-25T02:34:32.349Z,6.30
2023-02-25T02:37:13.835Z,6.77
2023-02-25T02:39:52.376Z,7.17
2023-02-25T02:42:32.461Z,6.03
2023-02-25T02:45:07.173Z,6.80
2023-02-25T02:47:39.562Z,8.00
2023-02-25T02:50:10.172Z,6.73
2023-02-25T02:52:43.343Z,7.93
2023-02-25T02:55:22.534Z,7.97
2023-02-25T02:57:58.665Z,6.90
2023-02-25T03:00:30.288Z,7.93
2023-02-25T03:03:03.597Z,6.20
2023-02-25T03:05:35.376Z,7.80
2023-02-25T03:08:09.035Z,8.70
2023-02-25T03:10:37.744Z,6.47
2023-02-25T03:13:06.630Z,5.77
2023-02-25T03:15:35.322Z,6.80
2023-02-25T03:18:07.970Z,4.40
2023-02-25T03:20:41.488Z,5.03
2023-02-25T03:23:13.645Z,4.50
2023-02-25T03:25:47.662Z,5.70
2023-02-25T03:28:26.850Z,5.73
2023-02-25T03:31:02.877Z,5.23
2023-02-25T03:33:37.312Z,5.37
2023-02-25T03:36:12.911Z,4.73
2023-02-25T03:38:46.343Z,4.10
2023-02-25T03:41:17.612Z,5.20
2023-02-25T03:43:47.851Z,3.90
2023-02-25T03:46:16.723Z,3.87
2023-02-25T03:48:48.073Z,3.67
2023-02-25T03:51:21.231Z,3.97
2023-02-25T03:53:50.361Z,5.47
2023-02-25T03:56:23.052Z,3.80
2023-02-25T03:58:51.386Z,4.23
2023-02-25T04:01:27.239Z,4.20
2023-02-25T04:03:56.696Z,4.47
2023-02-25T04:06:25.798Z,3.70
2023-02-25T04:08:54.200Z,4.60
2023-02-25T04:11:22.221Z,4.30
2023-02-25T04:13:50.682Z,4.87
2023-02-25T04:16:19.260Z,5.83
2023-02-25T04:18:48.581Z,4.63
2023-02-25T04:21:29.658Z,3.93
2023-02-25T04:23:58.538Z,3.73
2023-02-25T04:26:26.693Z,5.53
2023-02-25T04:28:54.825Z,4.63
2023-02-25T04:31:23.258Z,5.87
2023-02-25T04:33:51.719Z,5.30
2023-02-25T04:36:26.748Z,4.43
2023-02-25T04:38:56.035Z,6.13
2023-02-25T04:41:24.757Z,6.77
2023-02-25T04:43:52.760Z,6.00
2023-02-25T04:46:21.289Z,5.37
2023-02-25T04:48:49.573Z,6.23
2023-02-25T04:51:17.667Z,5.63
2023-02-25T04:53:47.684Z,6.50
2023-02-25T04:56:15.821Z,6.37
2023-02-25T04:58:44.267Z,7.30
2023-02-25T05:01:13.413Z,5.53
2023-02-25T05:03:42.071Z,6.53
2023-02-25T05:06:10.694Z,7.40
2023-02-25T05:08:39.093Z,8.80
2023-02-25T05:11:08.588Z,7.50
2023-02-25T05:13:36.622Z,7.30
2023-02-25T05:16:06.710Z,9.27
2023-02-25T05:18:37.238Z,6.10
2023-02-25T05:21:06.158Z,10.93
2023-02-25T05:23:34.158Z,9.17
2023-02-25T05:26:02.295Z,10.77
2023-02-25T05:28:31.726Z,9.03
2023-02-25T05:30:59.985Z,14.33
2023-02-25T05:33:28.120Z,12.13
2023-02-25T05:35:56.241Z,8.63
2023-02-25T05:38:24.455Z,5.57
2023-02-25T05:40:52.518Z,11.30
2023-02-25T05:43:20.945Z,10.47
2023-02-25T05:45:55.238Z,10.03
2023-02-25T05:48:23.956Z,12.20
2023-02-25T05:50:52.441Z,8.97
2023-02-25T05:53:20.962Z,8.37
2023-02-25T05:55:49.099Z,12.10
2023-02-25T05:58:17.107Z,11.23
2023-02-25T06:00:45.188Z,11.33
2023-02-25T06:03:14.633Z,12.67
2023-02-25T06:05:43.220Z,11.30
2023-02-25T06:08:11.631Z,13.80
2023-02-25T06:10:40.330Z,10.63
2023-02-25T06:13:09.129Z,9.67
2023-02-25T06:15:38.828Z,11.63
2023-02-25T06:18:07.244Z,11.33
2023-02-25T06:20:36.651Z,14.47
2023-02-25T06:23:05.272Z,12.43
2023-02-25T06:25:33.435Z,10.93
2023-02-25T06:28:02.041Z,9.30
2023-02-25T06:30:30.960Z,6.93
2023-02-25T06:32:59.534Z,8.67
2023-02-25T06:35:27.591Z,7.00
2023-02-25T06:37:58.304Z,6.73
2023-02-25T06:40:26.791Z,8.70
2023-02-25T06:42:54.821Z,7.50
2023-02-25T06:45:23.966Z,5.50
2023-02-25T06:47:52.119Z,7.23
2023-02-25T06:50:20.358Z,7.30
2023-02-25T06:52:48.467Z,7.90
2023-02-25T06:55:18.110Z,9.83
2023-02-25T06:57:46.227Z,8.23
2023-02-25T07:00:15.308Z,10.10
2023-02-25T07:02:43.415Z,10.70
2023-02-25T07:05:11.417Z,10.57
2023-02-25T07:07:39.612Z,10.17
2023-02-25T07:10:08.691Z,9.70
2023-02-25T07:12:38.192Z,10.87
2023-02-25T07:15:07.385Z,11.70
2023-02-25T07:17:35.619Z,11.03
2023-02-25T07:20:03.784Z,8.77
2023-02-25T07:22:31.766Z,10.23
2023-02-25T07:24:59.870Z,12.17
2023-02-25T07:27:28.055Z,8.20
2023-02-25T07:29:57.380Z,9.67
2023-02-25T07:32:25.899Z,9.07
2023-02-25T07:34:54.072Z,11.10
2023-02-25T07:37:22.093Z,12.63
2023-02-25T07:39:50.177Z,9.53
2023-02-25T07:42:18.175Z,8.10
2023-02-25T07:44:49.255Z,7.87
2023-02-25T07:47:19.305Z,14.50
2023-02-25T07:49:47.537Z,10.20
2023-02-25T07:52:15.733Z,10.17
2023-02-25T07:54:44.105Z,11.70
2023-02-25T07:57:12.065Z,10.07
2023-02-25T07:59:42.157Z,11.13
2023-02-25T08:02:16.401Z,10.17
2023-02-25T08:04:45.894Z,8.93
2023-02-25T08:07:14.092Z,12.13
2023-02-25T08:09:43.325Z,11.17
2023-02-25T08:12:12.291Z,10.80
2023-02-25T08:14:40.454Z,9.80
2023-02-25T08:17:08.533Z,11.60
2023-02-25T08:19:36.660Z,9.80
2023-02-25T08:22:06.051Z,9.17
2023-02-25T08:24:34.224Z,10.07
2023-02-25T08:27:02.382Z,8.73
2023-02-25T08:29:30.930Z,9.90
2023-02-25T08:31:59.164Z,9.50
2023-02-25T08:34:27.402Z,7.43
2023-02-25T08:36:55.650Z,7.00
2023-02-25T08:39:25.036Z,6.53
2023-02-25T08:41:53.018Z,6.40
2023-02-25T08:44:21.070Z,7.17
2023-02-25T08:46:49.260Z,8.73
2023-02-25T08:49:17.572Z,9.50
2023-02-25T08:51:45.575Z,9.80
2023-02-25T08:54:14.916Z,5.83
2023-02-25T08:56:45.548Z,6.97
2023-02-25T08:59:16.326Z,7.97
2023-02-25T09:01:50.339Z,8.00
2023-02-25T09:04:20.026Z,6.83
2023-02-25T09:06:48.583Z,6.97
2023-02-25T09:09:17.556Z,7.50
2023-02-25T09:11:47.827Z,5.60
2023-02-25T09:14:16.207Z,7.07
2023-02-25T09:16:44.464Z,8.60
2023-02-25T09:19:12.704Z,8.33
2023-02-25T09:21:41.366Z,6.53
2023-02-25T09:24:10.537Z,10.53
2023-02-25T09:26:38.975Z,5.70
2023-02-25T09:29:08.808Z,5.13
2023-02-25T09:31:38.053Z,9.97
2023-02-25T09:34:08.915Z,7.00
2023-02-25T09:36:37.468Z,7.50
2023-02-25T09:39:10.009Z,10.50
2023-02-25T09:41:46.065Z,13.30
2023-02-25T09:44:19.327Z,6.63
2023-02-25T09:46:53.242Z,7.40
2023-02-25T09:49:29.719Z,6.23
2023-02-25T09:52:04.163Z,4.37
2023-02-25T09:54:38.417Z,5.40
2023-02-25T09:57:11.613Z,5.10
2023-02-25T09:59:41.057Z,5.47
2023-02-25T10:02:25.734Z,4.43
2023-02-25T10:05:07.915Z,5.60
2023-02-25T10:07:41.639Z,5.10
2023-02-25T10:10:17.616Z,3.93
2023-02-25T10:12:54.074Z,8.63
2023-02-25T10:15:37.023Z,5.17
2023-02-25T10:18:21.833Z,7.40
2023-02-25T10:20:59.819Z,5.27
2023-02-25T10:23:44.841Z,3.87
2023-02-25T10:26:19.236Z,7.20
2023-02-25T10:28:51.479Z,4.60
2023-02-25T10:31:24.333Z,3.43
2023-02-25T10:33:54.747Z,5.23
2023-02-25T10:36:28.895Z,3.80
2023-02-25T10:38:57.758Z,3.87
2023-02-25T10:41:26.954Z,4.63
2023-02-25T10:43:56.613Z,3.97
2023-02-25T10:46:31.334Z,4.90
2023-02-25T10:49:01.838Z,4.83
2023-02-25T10:51:30.092Z,4.97
2023-02-25T10:54:07.225Z,6.30
2023-02-25T10:56:42.508Z,7.33
2023-02-25T10:59:27.679Z,3.73
2023-02-25T11:01:59.169Z,3.83
2023-02-25T11:04:32.250Z,6.10
2023-02-25T11:07:00.277Z,4.07
2023-02-25T11:09:31.754Z,6.17
2023-02-25T11:12:01.950Z,4.23
2023-02-25T11:14:32.111Z,7.73
2023-02-25T11:17:08.415Z,3.90
2023-02-25T11:19:40.173Z,4.23
2023-02-25T11:22:11.266Z,4.73
2023-02-25T11:24:42.865Z,2.80
2023-02-25T11:27:26.878Z,3.97
2023-02-25T11:30:01.959Z,3.07
2023-02-25T11:32:33.568Z,5.20
2023-02-25T11:35:08.923Z,4.00
2023-02-25T11:37:40.786Z,5.73
2023-02-25T11:40:24.400Z,5.20
2023-02-25T11:43:03.499Z,3.83
2023-02-25T11:45:33.981Z,3.87
2023-02-25T11:48:05.160Z,3.33
2023-02-25T11:50:39.160Z,11.60
2023-02-25T11:53:18.038Z,3.30
2023-02-25T11:55:58.900Z,3.50
2023-02-25T11:58:35.929Z,2.90
2023-02-25T12:01:10.550Z,3.93
2023-02-25T12:04:11.281Z,6.03
2023-02-25T12:07:08.184Z,3.47
2023-02-25T12:10:18.400Z,3.40
2023-02-25T12:13:24.347Z,3.93
2023-02-25T12:16:22.095Z,3.47
2023-02-25T12:19:20.907Z,2.23
2023-02-25T12:22:36.693Z,3.63
2023-02-25T12:25:21.251Z,2.40
2023-02-25T12:28:41.594Z,2.43
2023-02-25T12:31:46.864Z,2.60
2023-02-25T12:34:32.003Z,3.00
2023-02-25T12:37:20.749Z,2.30
2023-02-25T12:40:00.777Z,2.00
2023-02-25T12:42:43.951Z,3.50
2023-02-25T12:45:37.472Z,2.30
2023-02-25T12:48:33.996Z,3.00
2023-02-25T12:51:37.925Z,3.10
2023-02-25T12:54:22.890Z,2.30
2023-02-25T12:57:09.216Z,4.20
2023-02-25T12:59:58.928Z,2.43
2023-02-25T13:02:50.367Z,2.83
2023-02-25T13:05:35.026Z,2.50
2023-02-25T13:08:26.065Z,2.30
2023-02-25T13:10:59.133Z,3.27
2023-02-25T13:13:56.969Z,3.70
2023-02-25T13:16:40.444Z,3.17
2023-02-25T13:19:24.901Z,5.80
2023-02-25T13:22:06.320Z,3.43
2023-02-25T13:24:46.358Z,3.20
2023-02-25T13:27:35.389Z,2.27
2023-02-25T13:30:30.204Z,2.73
2023-02-25T13:33:13.188Z,2.30
2023-02-25T13:35:54.741Z,2.60
2023-02-25T13:38:38.485Z,2.13
2023-02-25T13:41:37.620Z,2.37
2023-02-25T13:44:32.266Z,4.10
2023-02-25T13:47:21.238Z,2.13
2023-02-25T13:50:34.022Z,2.60
2023-02-25T13:53:35.023Z,4.53
2023-02-25T13:56:28.461Z,3.13
2023-02-25T13:59:12.684Z,2.90
2023-02-25T14:01:50.016Z,3.00
2023-02-25T14:04:54.146Z,2.87
2023-02-25T14:07:43.627Z,3.80
2023-02-25T14:10:25.265Z,2.87
2023-02-25T14:13:11.177Z,3.70
2023-02-25T14:15:49.480Z,3.40
2023-02-25T14:18:29.378Z,3.73
2023-02-25T14:21:16.426Z,3.30
2023-02-25T14:23:52.054Z,3.87
2023-02-25T14:26:28.055Z,3.90
2023-02-25T14:29:07.527Z,2.97
2023-02-25T14:31:52.330Z,3.00
2023-02-25T14:34:33.193Z,2.90
2023-02-25T14:37:17.084Z,3.50
2023-02-25T14:39:57.086Z,1.97
2023-02-25T14:42:37.929Z,3.07
2023-02-25T14:45:20.306Z,3.73
2023-02-25T14:47:55.549Z,4.23
2023-02-25T14:50:30.551Z,3.33
2023-02-25T14:53:18.770Z,2.60
2023-02-25T14:56:26.021Z,2.53
2023-02-25T14:59:35.696Z,2.37
2023-02-25T15:02:27.676Z,2.30
2023-02-25T15:05:16.525Z,2.80
2023-02-25T15:08:05.722Z,2.87
2023-02-25T15:10:48.214Z,2.90
2023-02-25T15:13:34.568Z,2.63
2023-02-25T15:16:31.424Z,2.30
2023-02-25T15:19:25.726Z,2.90
2023-02-25T15:22:18.190Z,2.47
2023-02-25T15:24:47.203Z,3.00
2023-02-25T15:27:44.887Z,2.40
2023-02-25T15:30:15.026Z,3.40
2023-02-25T15:33:14.625Z,2.73
2023-02-25T15:36:00.595Z,2.97
2023-02-25T15:38:45.064Z,3.83
2023-02-25T15:41:42.814Z,2.50
2023-02-25T15:44:35.387Z,2.60
2023-02-25T15:47:23.776Z,2.63
2023-02-25T15:49:53.097Z,4.30
2023-02-25T15:52:56.816Z,2.87
2023-02-25T15:55:39.319Z,3.13
2023-02-25T15:58:45.809Z,3.57
2023-02-25T16:01:37.652Z,2.77
2023-02-25T16:04:27.770Z,2.93
2023-02-25T16:06:55.959Z,4.27
2023-02-25T16:09:25.011Z,3.43
2023-02-25T16:11:55.937Z,3.07
2023-02-25T16:14:27.397Z,2.40
2023-02-25T16:16:58.509Z,3.03
2023-02-25T16:19:30.864Z,2.83
2023-02-25T16:22:01.367Z,2.43
2023-02-25T16:24:30.185Z,4.43
2023-02-25T16:27:05.363Z,3.13
2023-02-25T16:29:44.053Z,2.40
2023-02-25T16:32:24.396Z,2.40
2023-02-25T16:34:58.136Z,2.37
2023-02-25T16:37:33.037Z,2.80
2023-02-25T16:40:02.627Z,2.23
2023-02-25T16:42:34.148Z,2.73
2023-02-25T16:45:05.639Z,2.93
2023-02-25T16:47:36.630Z,3.00
2023-02-25T16:50:12.632Z,3.17
2023-02-25T16:52:47.160Z,2.20
2023-02-25T16:55:21.412Z,2.30
2023-02-25T16:58:07.942Z,2.30
2023-02-25T17:00:37.173Z,2.50
2023-02-25T17:03:11.641Z,3.37
2023-02-25T17:05:39.952Z,2.37
2023-02-25T17:08:16.652Z,1.80
2023-02-25T17:10:47.932Z,2.00
2023-02-25T17:13:24.519Z,2.50
2023-02-25T17:15:54.262Z,2.50
2023-02-25T17:18:26.682Z,4.80
2023-02-25T17:21:02.516Z,2.23
2023-02-25T17:23:31.804Z,4.70
2023-02-25T17:26:00.712Z,3.03
2023-02-25T17:28:33.477Z,2.60
2023-02-25T17:31:08.997Z,2.90
2023-02-25T17:33:47.506Z,3.07
2023-02-25T17:36:18.983Z,5.13
2023-02-25T17:38:47.864Z,2.27
2023-02-25T17:41:17.576Z,1.90
2023-02-25T17:43:47.181Z,1.80
2023-02-25T17:46:18.528Z,1.30
2023-02-25T17:48:52.917Z,1.60
2023-02-25T17:51:31.183Z,1.30
2023-02-25T17:54:05.689Z,1.43
2023-02-25T17:56:35.299Z,1.70
2023-02-25T17:59:07.129Z,2.07
2023-02-25T18:01:48.322Z,1.07
2023-02-25T18:04:25.471Z,4.30
2023-02-25T18:09:49.373Z,3.27
2023-02-25T18:12:24.975Z,2.47
2023-02-25T18:14:57.614Z,2.50
2023-02-25T18:17:28.388Z,1.80
2023-02-25T18:19:58.268Z,1.50
2023-02-25T18:22:31.804Z,1.50
2023-02-25T18:25:02.677Z,2.10
2023-02-25T18:27:32.819Z,2.37
2023-02-25T18:30:18.074Z,2.50
2023-02-25T18:32:47.068Z,2.40
2023-02-25T18:35:15.723Z,3.20
2023-02-25T18:37:45.715Z,1.90
2023-02-25T18:40:20.065Z,6.60
2023-02-25T18:42:48.105Z,5.97
2023-02-25T18:45:21.432Z,2.40
2023-02-25T18:47:50.484Z,5.63
2023-02-25T18:50:19.134Z,5.23
2023-02-25T18:52:47.873Z,5.17
2023-02-25T18:55:18.722Z,2.70
2023-02-25T18:57:46.984Z,2.40
2023-02-25T19:00:18.742Z,2.30
2023-02-25T19:02:49.830Z,2.57
2023-02-25T19:05:19.229Z,2.87
2023-02-25T19:07:47.624Z,2.77
2023-02-25T19:10:17.992Z,2.40
2023-02-25T19:12:48.509Z,3.03
2023-02-25T19:15:20.724Z,3.93
2023-02-25T19:17:50.155Z,3.90
2023-02-25T19:20:20.396Z,4.13
2023-02-25T19:22:50.264Z,3.70
2023-02-25T19:25:21.664Z,2.73
2023-02-25T19:27:50.617Z,2.40
2023-02-25T19:30:22.061Z,2.37
2023-02-25T19:32:50.181Z,7.30
2023-02-25T19:35:18.681Z,3.30
2023-02-25T19:37:46.799Z,3.30
2023-02-25T19:40:16.942Z,4.43
2023-02-25T19:42:45.885Z,2.97
2023-02-25T19:45:16.268Z,5.07
2023-02-25T19:47:46.414Z,2.93
2023-02-25T19:50:15.410Z,4.10
2023-02-25T19:52:44.614Z,5.40
2023-02-25T19:55:14.077Z,3.97
2023-02-25T19:57:42.650Z,8.50
2023-02-25T20:00:13.851Z,7.90
2023-02-25T20:02:41.938Z,4.40
2023-02-25T20:05:12.671Z,10.13
2023-02-25T20:07:41.238Z,9.47
2023-02-25T20:10:12.959Z,4.37
2023-02-25T20:12:41.488Z,4.87
2023-02-25T20:15:11.309Z,4.47
2023-02-25T20:17:39.898Z,18.80
2023-02-25T20:20:09.370Z,11.37
2023-02-25T20:22:40.054Z,5.93
2023-02-25T20:25:09.899Z,7.40
2023-02-25T20:27:39.896Z,16.50
2023-02-25T20:30:10.608Z,7.43
2023-02-25T20:32:38.746Z,5.90
2023-02-25T20:35:07.954Z,6.50
2023-02-25T20:37:43.949Z,7.90
2023-02-25T20:40:13.222Z,3.97
2023-02-25T20:42:41.665Z,5.17
2023-02-25T20:45:16.287Z,4.77
2023-02-25T20:47:44.608Z,4.60
2023-02-25T20:50:16.369Z,6.97
2023-02-25T20:52:45.969Z,4.50
2023-02-25T20:55:14.076Z,5.50
2023-02-25T20:57:42.136Z,4.90
2023-02-25T21:00:15.604Z,4.73
2023-02-25T21:02:44.282Z,5.30
2023-02-25T21:05:14.766Z,4.63
2023-02-25T21:07:42.777Z,7.30
2023-02-25T21:10:13.167Z,4.10
2023-02-25T21:12:41.264Z,4.40
2023-02-25T21:15:10.602Z,5.03
2023-02-25T21:17:38.621Z,4.00
2023-02-25T21:20:07.867Z,4.63
2023-02-25T21:22:36.266Z,4.00
2023-02-25T21:25:04.798Z,4.13
2023-02-25T21:27:34.188Z,3.60
2023-02-25T21:30:03.007Z,4.40
2023-02-25T21:32:31.055Z,3.10
2023-02-25T21:34:59.170Z,3.80
2023-02-25T21:37:28.089Z,5.20
2023-02-25T21:39:56.323Z,4.13
2023-02-25T21:42:24.405Z,4.03
2023-02-25T21:44:54.353Z,3.07
2023-02-25T21:47:22.412Z,3.20
2023-02-25T21:49:51.322Z,5.37
2023-02-25T21:52:19.449Z,4.13
2023-02-25T21:54:47.510Z,4.30
2023-02-25T21:57:15.547Z,4.00
2023-02-25T21:59:43.553Z,4.90
2023-02-25T22:02:12.940Z,5.43
2023-02-25T22:04:41.022Z,5.07
2023-02-25T22:07:09.071Z,4.77
2023-02-25T22:09:37.106Z,5.23
2023-02-25T22:12:05.583Z,5.93
2023-02-25T22:14:33.929Z,6.13
2023-02-25T22:17:02.247Z,4.50
2023-02-25T22:19:31.671Z,2.53
2023-02-25T22:21:59.666Z,2.43
2023-02-25T22:24:27.662Z,2.30
2023-02-25T22:26:55.923Z,1.97
2023-02-25T22:29:26.530Z,4.47
2023-02-25T22:31:54.621Z,2.97
2023-02-25T22:34:22.837Z,2.20
2023-02-25T22:36:52.274Z,2.10
2023-02-25T22:39:20.449Z,2.30
2023-02-25T22:41:48.520Z,2.57
2023-02-25T22:44:16.967Z,2.20
2023-02-25T22:46:45.071Z,2.50
2023-02-25T22:49:13.179Z,2.37
2023-02-25T22:51:43.029Z,2.17
2023-02-25T22:54:13.671Z,2.00
2023-02-25T22:56:41.825Z,2.33
2023-02-25T22:59:11.042Z,2.37
2023-02-25T23:01:39.621Z,2.23
2023-02-25T23:04:08.849Z,2.63
2023-02-25T23:06:43.977Z,2.13
2023-02-25T23:09:14.830Z,2.70
2023-02-25T23:11:44.070Z,2.53
2023-02-25T23:14:12.845Z,2.60
2023-02-25T23:16:44.710Z,2.60
2023-02-25T23:19:15.674Z,2.57
2023-02-25T23:21:43.875Z,2.40
2023-02-25T23:24:17.348Z,3.40
2023-02-25T23:26:47.396Z,2.60
2023-02-25T23:29:15.556Z,3.00
2023-02-25T23:31:46.857Z,2.87
2023-02-25T23:34:18.596Z,3.37
2023-02-25T23:36:47.283Z,2.60
2023-02-25T23:39:17.371Z,3.17
2023-02-25T23:41:45.641Z,5.10
2023-02-25T23:44:14.379Z,3.10
2023-02-25T23:46:44.921Z,3.57
2023-02-25T23:49:15.755Z,2.27
2023-02-25T23:51:45.439Z,2.87
2023-02-25T23:54:15.425Z,3.00
2023-02-25T23:56:44.940Z,3.80
2023-02-25T23:59:13.314Z,3.00
